sensor_id;sensor_type;location;lat;lon;timestamp;P1;durP1;ratioP1;P2;durP2;ratioP2
69203;SDS011;56317;27.658;85.326;2022-08-19T00:01:24;8.20;;;3.40;;
69203;SDS011;56317;27.658;85.326;2022-08-19T00:03:52;7.63;;;3.55;;
69203;SDS011;56317;27.658;85.326;2022-08-19T00:06:19;10.43;;;3.88;;
69203;SDS011;56317;27.658;85.326;2022-08-19T00:08:46;7.63;;;3.20;;
69203;SDS011;56317;27.658;85.326;2022-08-19T00:11:14;7.65;;;3.60;;
69203;SDS011;56317;27.658;85.326;2022-08-19T00:13:41;6.22;;;3.58;;
69203;SDS011;56317;27.658;85.326;2022-08-19T00:16:08;8.02;;;3.25;;
69203;SDS011;56317;27.658;85.326;2022-08-19T00:18:35;5.72;;;2.47;;
69203;SDS011;56317;27.658;85.326;2022-08-19T00:21:02;4.15;;;2.20;;
69203;SDS011;56317;27.658;85.326;2022-08-19T00:23:34;8.00;;;3.15;;
69203;SDS011;56317;27.658;85.326;2022-08-19T00:26:04;9.20;;;3.05;;
69203;SDS011;56317;27.658;85.326;2022-08-19T00:28:33;5.68;;;3.08;;
69203;SDS011;56317;27.658;85.326;2022-08-19T00:31:01;6.15;;;3.50;;
69203;SDS011;56317;27.658;85.326;2022-08-19T00:33:30;6.30;;;3.22;;
69203;SDS011;56317;27.658;85.326;2022-08-19T00:35:58;12.55;;;5.05;;
69203;SDS011;56317;27.658;85.326;2022-08-19T00:38:26;5.90;;;3.20;;
69203;SDS011;56317;27.658;85.326;2022-08-19T00:40:54;7.43;;;3.72;;
69203;SDS011;56317;27.658;85.326;2022-08-19T00:43:22;11.82;;;3.92;;
69203;SDS011;56317;27.658;85.326;2022-08-19T00:45:51;9.35;;;4.40;;
69203;SDS011;56317;27.658;85.326;2022-08-19T00:48:19;7.30;;;3.85;;
69203;SDS011;56317;27.658;85.326;2022-08-19T00:50:49;6.15;;;3.80;;
69203;SDS011;56317;27.658;85.326;2022-08-19T00:53:20;16.27;;;4.25;;
69203;SDS011;56317;27.658;85.326;2022-08-19T00:55:50;20.63;;;7.07;;
69203;SDS011;56317;27.658;85.326;2022-08-19T00:58:21;10.23;;;4.82;;
69203;SDS011;56317;27.658;85.326;2022-08-19T01:00:52;16.00;;;4.82;;
69203;SDS011;56317;27.658;85.326;2022-08-19T01:03:20;14.55;;;5.82;;
69203;SDS011;56317;27.658;85.326;2022-08-19T01:05:48;17.70;;;5.43;;
69203;SDS011;56317;27.658;85.326;2022-08-19T01:08:17;8.57;;;4.88;;
69203;SDS011;56317;27.658;85.326;2022-08-19T01:10:51;9.77;;;4.82;;
69203;SDS011;56317;27.658;85.326;2022-08-19T01:13:21;8.23;;;4.10;;
69203;SDS011;56317;27.658;85.326;2022-08-19T01:15:55;12.03;;;4.17;;
69203;SDS011;56317;27.658;85.326;2022-08-19T01:18:38;10.60;;;4.55;;
69203;SDS011;56317;27.658;85.326;2022-08-19T01:21:16;10.88;;;4.40;;
69203;SDS011;56317;27.658;85.326;2022-08-19T01:23:53;8.40;;;4.63;;
69203;SDS011;56317;27.658;85.326;2022-08-19T01:26:21;7.50;;;4.43;;
69203;SDS011;56317;27.658;85.326;2022-08-19T01:28:53;9.10;;;5.20;;
69203;SDS011;56317;27.658;85.326;2022-08-19T01:31:23;12.88;;;6.88;;
69203;SDS011;56317;27.658;85.326;2022-08-19T01:33:52;7.85;;;4.85;;
69203;SDS011;56317;27.658;85.326;2022-08-19T01:36:31;11.65;;;4.97;;
69203;SDS011;56317;27.658;85.326;2022-08-19T01:39:05;11.82;;;5.15;;
69203;SDS011;56317;27.658;85.326;2022-08-19T01:41:35;6.30;;;4.50;;
69203;SDS011;56317;27.658;85.326;2022-08-19T01:44:02;7.93;;;4.50;;
69203;SDS011;56317;27.658;85.326;2022-08-19T01:46:31;6.72;;;4.50;;
69203;SDS011;56317;27.658;85.326;2022-08-19T01:48:58;9.52;;;4.82;;
69203;SDS011;56317;27.658;85.326;2022-08-19T01:51:26;9.32;;;5.60;;
69203;SDS011;56317;27.658;85.326;2022-08-19T01:53:53;8.98;;;5.70;;
69203;SDS011;56317;27.658;85.326;2022-08-19T01:56:21;9.00;;;6.03;;
69203;SDS011;56317;27.658;85.326;2022-08-19T01:58:53;8.48;;;5.70;;
69203;SDS011;56317;27.658;85.326;2022-08-19T02:01:26;9.38;;;5.88;;
69203;SDS011;56317;27.658;85.326;2022-08-19T02:03:57;12.48;;;6.18;;
69203;SDS011;56317;27.658;85.326;2022-08-19T02:06:26;10.57;;;6.07;;
69203;SDS011;56317;27.658;85.326;2022-08-19T02:08:54;10.18;;;6.47;;
69203;SDS011;56317;27.658;85.326;2022-08-19T02:11:22;11.13;;;6.60;;
69203;SDS011;56317;27.658;85.326;2022-08-19T02:13:53;12.95;;;6.93;;
69203;SDS011;56317;27.658;85.326;2022-08-19T02:16:21;10.25;;;6.68;;
69203;SDS011;56317;27.658;85.326;2022-08-19T02:18:48;9.25;;;5.93;;
69203;SDS011;56317;27.658;85.326;2022-08-19T02:21:18;7.88;;;4.38;;
69203;SDS011;56317;27.658;85.326;2022-08-19T02:23:46;6.43;;;3.27;;
69203;SDS011;56317;27.658;85.326;2022-08-19T02:26:15;10.35;;;3.67;;
69203;SDS011;56317;27.658;85.326;2022-08-19T02:28:43;6.85;;;3.72;;
69203;SDS011;56317;27.658;85.326;2022-08-19T02:31:11;7.22;;;4.07;;
69203;SDS011;56317;27.658;85.326;2022-08-19T02:33:43;7.18;;;3.47;;
69203;SDS011;56317;27.658;85.326;2022-08-19T02:36:11;5.72;;;3.50;;
69203;SDS011;56317;27.658;85.326;2022-08-19T02:38:39;9.75;;;3.00;;
69203;SDS011;56317;27.658;85.326;2022-08-19T02:41:10;7.10;;;3.28;;
69203;SDS011;56317;27.658;85.326;2022-08-19T02:43:43;6.13;;;3.25;;
69203;SDS011;56317;27.658;85.326;2022-08-19T02:46:11;10.48;;;3.40;;
69203;SDS011;56317;27.658;85.326;2022-08-19T02:48:53;5.85;;;3.33;;
69203;SDS011;56317;27.658;85.326;2022-08-19T02:51:28;7.30;;;3.33;;
69203;SDS011;56317;27.658;85.326;2022-08-19T02:53:58;8.15;;;3.55;;
69203;SDS011;56317;27.658;85.326;2022-08-19T02:56:25;7.75;;;3.60;;
69203;SDS011;56317;27.658;85.326;2022-08-19T02:58:54;5.85;;;3.20;;
69203;SDS011;56317;27.658;85.326;2022-08-19T03:01:23;6.43;;;3.47;;
69203;SDS011;56317;27.658;85.326;2022-08-19T03:03:55;6.32;;;3.90;;
69203;SDS011;56317;27.658;85.326;2022-08-19T03:06:25;6.18;;;3.40;;
69203;SDS011;56317;27.658;85.326;2022-08-19T03:08:52;6.93;;;2.92;;
69203;SDS011;56317;27.658;85.326;2022-08-19T03:11:22;5.53;;;3.15;;
69203;SDS011;56317;27.658;85.326;2022-08-19T03:13:59;8.20;;;3.00;;
69203;SDS011;56317;27.658;85.326;2022-08-19T03:16:28;8.70;;;3.75;;
69203;SDS011;56317;27.658;85.326;2022-08-19T03:18:57;7.95;;;3.97;;
69203;SDS011;56317;27.658;85.326;2022-08-19T03:21:29;5.17;;;3.07;;
69203;SDS011;56317;27.658;85.326;2022-08-19T03:23:58;5.82;;;3.50;;
69203;SDS011;56317;27.658;85.326;2022-08-19T03:26:27;7.85;;;4.10;;
69203;SDS011;56317;27.658;85.326;2022-08-19T03:28:55;11.60;;;4.90;;
69203;SDS011;56317;27.658;85.326;2022-08-19T03:31:26;11.02;;;5.45;;
69203;SDS011;56317;27.658;85.326;2022-08-19T03:33:54;8.82;;;4.45;;
69203;SDS011;56317;27.658;85.326;2022-08-19T03:36:22;6.07;;;3.92;;
69203;SDS011;56317;27.658;85.326;2022-08-19T03:38:52;8.77;;;4.23;;
69203;SDS011;56317;27.658;85.326;2022-08-19T03:41:32;9.73;;;4.53;;
69203;SDS011;56317;27.658;85.326;2022-08-19T03:44:02;8.38;;;4.03;;
69203;SDS011;56317;27.658;85.326;2022-08-19T03:46:31;7.13;;;4.28;;
69203;SDS011;56317;27.658;85.326;2022-08-19T03:49:00;7.90;;;5.07;;
69203;SDS011;56317;27.658;85.326;2022-08-19T03:51:33;9.23;;;4.60;;
69203;SDS011;56317;27.658;85.326;2022-08-19T03:54:05;6.38;;;4.22;;
69203;SDS011;56317;27.658;85.326;2022-08-19T03:56:35;7.10;;;4.70;;
69203;SDS011;56317;27.658;85.326;2022-08-19T03:59:04;6.28;;;3.80;;
69203;SDS011;56317;27.658;85.326;2022-08-19T04:01:34;6.47;;;3.55;;
69203;SDS011;56317;27.658;85.326;2022-08-19T04:04:01;9.15;;;4.03;;
69203;SDS011;56317;27.658;85.326;2022-08-19T04:06:30;4.72;;;3.00;;
69203;SDS011;56317;27.658;85.326;2022-08-19T04:11:29;6.47;;;3.28;;
69203;SDS011;56317;27.658;85.326;2022-08-19T04:13:58;9.70;;;3.95;;
69203;SDS011;56317;27.658;85.326;2022-08-19T04:16:26;10.48;;;3.47;;
69203;SDS011;56317;27.658;85.326;2022-08-19T04:18:55;5.88;;;3.33;;
69203;SDS011;56317;27.658;85.326;2022-08-19T04:23:53;7.82;;;3.83;;
69203;SDS011;56317;27.658;85.326;2022-08-19T04:26:22;5.85;;;3.63;;
69203;SDS011;56317;27.658;85.326;2022-08-19T04:28:51;7.60;;;3.60;;
69203;SDS011;56317;27.658;85.326;2022-08-19T04:31:21;6.75;;;3.95;;
69203;SDS011;56317;27.658;85.326;2022-08-19T04:33:53;7.13;;;4.07;;
69203;SDS011;56317;27.658;85.326;2022-08-19T04:36:23;6.78;;;3.60;;
69203;SDS011;56317;27.658;85.326;2022-08-19T04:38:56;8.32;;;4.13;;
69203;SDS011;56317;27.658;85.326;2022-08-19T04:41:26;7.80;;;4.30;;
69203;SDS011;56317;27.658;85.326;2022-08-19T04:44:12;8.15;;;3.65;;
69203;SDS011;56317;27.658;85.326;2022-08-19T04:46:39;7.10;;;3.50;;
69203;SDS011;56317;27.658;85.326;2022-08-19T04:49:07;6.53;;;3.55;;
69203;SDS011;56317;27.658;85.326;2022-08-19T04:51:35;6.72;;;3.78;;
69203;SDS011;56317;27.658;85.326;2022-08-19T04:54:03;5.20;;;3.10;;
69203;SDS011;56317;27.658;85.326;2022-08-19T04:56:30;7.15;;;3.88;;
69203;SDS011;56317;27.658;85.326;2022-08-19T04:58:59;8.27;;;3.85;;
69203;SDS011;56317;27.658;85.326;2022-08-19T05:01:31;9.57;;;4.40;;
69203;SDS011;56317;27.658;85.326;2022-08-19T05:03:59;6.28;;;3.78;;
69203;SDS011;56317;27.658;85.326;2022-08-19T05:06:29;6.67;;;4.20;;
69203;SDS011;56317;27.658;85.326;2022-08-19T05:09:00;7.85;;;4.15;;
69203;SDS011;56317;27.658;85.326;2022-08-19T05:11:30;5.95;;;4.40;;
69203;SDS011;56317;27.658;85.326;2022-08-19T05:14:00;13.57;;;5.40;;
69203;SDS011;56317;27.658;85.326;2022-08-19T05:16:27;7.13;;;3.95;;
69203;SDS011;56317;27.658;85.326;2022-08-19T05:18:55;7.05;;;4.00;;
69203;SDS011;56317;27.658;85.326;2022-08-19T05:21:41;6.28;;;3.60;;
69203;SDS011;56317;27.658;85.326;2022-08-19T05:24:27;7.93;;;4.13;;
69203;SDS011;56317;27.658;85.326;2022-08-19T05:26:55;8.15;;;3.65;;
69203;SDS011;56317;27.658;85.326;2022-08-19T05:29:24;10.25;;;4.25;;
69203;SDS011;56317;27.658;85.326;2022-08-19T05:31:53;6.30;;;4.07;;
69203;SDS011;56317;27.658;85.326;2022-08-19T05:45:01;6.68;;;4.72;;
69203;SDS011;56317;27.658;85.326;2022-08-19T05:47:30;6.85;;;3.45;;
69203;SDS011;56317;27.658;85.326;2022-08-19T05:49:57;8.45;;;3.92;;
69203;SDS011;56317;27.658;85.326;2022-08-19T05:52:25;6.75;;;4.05;;
69203;SDS011;56317;27.658;85.326;2022-08-19T05:54:53;8.02;;;3.78;;
69203;SDS011;56317;27.658;85.326;2022-08-19T05:57:21;5.72;;;3.63;;
69203;SDS011;56317;27.658;85.326;2022-08-19T05:59:48;8.02;;;4.07;;
69203;SDS011;56317;27.658;85.326;2022-08-19T06:02:17;5.50;;;3.63;;
69203;SDS011;56317;27.658;85.326;2022-08-19T06:04:44;6.90;;;3.92;;
69203;SDS011;56317;27.658;85.326;2022-08-19T06:07:11;7.63;;;4.28;;
69203;SDS011;56317;27.658;85.326;2022-08-19T06:09:40;7.50;;;4.50;;
69203;SDS011;56317;27.658;85.326;2022-08-19T06:12:07;7.38;;;3.88;;
69203;SDS011;56317;27.658;85.326;2022-08-19T06:14:35;7.03;;;3.80;;
69203;SDS011;56317;27.658;85.326;2022-08-19T06:17:02;7.45;;;4.28;;
69203;SDS011;56317;27.658;85.326;2022-08-19T06:22:52;6.10;;;3.65;;
69203;SDS011;56317;27.658;85.326;2022-08-19T06:25:19;6.70;;;3.83;;
69203;SDS011;56317;27.658;85.326;2022-08-19T06:27:46;7.28;;;4.60;;
69203;SDS011;56317;27.658;85.326;2022-08-19T06:30:14;6.57;;;3.88;;
69203;SDS011;56317;27.658;85.326;2022-08-19T06:32:41;7.07;;;3.45;;
69203;SDS011;56317;27.658;85.326;2022-08-19T06:35:09;5.57;;;3.33;;
69203;SDS011;56317;27.658;85.326;2022-08-19T06:37:37;5.45;;;3.20;;
69203;SDS011;56317;27.658;85.326;2022-08-19T06:40:04;4.97;;;3.28;;
69203;SDS011;56317;27.658;85.326;2022-08-19T06:42:34;8.65;;;3.25;;
69203;SDS011;56317;27.658;85.326;2022-08-19T06:45:04;6.82;;;3.30;;
69203;SDS011;56317;27.658;85.326;2022-08-19T06:50:00;5.13;;;3.28;;
69203;SDS011;56317;27.658;85.326;2022-08-19T06:52:30;6.38;;;3.78;;
69203;SDS011;56317;27.658;85.326;2022-08-19T06:55:01;6.15;;;3.30;;
69203;SDS011;56317;27.658;85.326;2022-08-19T06:57:29;5.13;;;2.70;;
69203;SDS011;56317;27.658;85.326;2022-08-19T06:59:58;6.82;;;2.58;;
69203;SDS011;56317;27.658;85.326;2022-08-19T07:02:25;6.43;;;3.10;;
69203;SDS011;56317;27.658;85.326;2022-08-19T07:04:53;7.03;;;3.00;;
69203;SDS011;56317;27.658;85.326;2022-08-19T07:07:23;3.92;;;2.60;;
69203;SDS011;56317;27.658;85.326;2022-08-19T07:09:51;4.10;;;2.50;;
69203;SDS011;56317;27.658;85.326;2022-08-19T07:12:18;4.47;;;2.60;;
69203;SDS011;56317;27.658;85.326;2022-08-19T07:14:46;4.65;;;2.47;;
69203;SDS011;56317;27.658;85.326;2022-08-19T07:17:14;5.00;;;2.97;;
69203;SDS011;56317;27.658;85.326;2022-08-19T07:19:42;5.50;;;3.10;;
69203;SDS011;56317;27.658;85.326;2022-08-19T07:22:09;5.22;;;2.72;;
69203;SDS011;56317;27.658;85.326;2022-08-19T07:24:37;5.80;;;2.70;;
69203;SDS011;56317;27.658;85.326;2022-08-19T07:27:05;4.85;;;2.75;;
69203;SDS011;56317;27.658;85.326;2022-08-19T07:29:34;6.43;;;2.90;;
69203;SDS011;56317;27.658;85.326;2022-08-19T07:32:03;7.47;;;3.10;;
69203;SDS011;56317;27.658;85.326;2022-08-19T07:34:31;6.38;;;3.25;;
69203;SDS011;56317;27.658;85.326;2022-08-19T07:37:05;5.95;;;3.10;;
69203;SDS011;56317;27.658;85.326;2022-08-19T07:39:33;5.90;;;3.00;;
69203;SDS011;56317;27.658;85.326;2022-08-19T07:42:04;7.87;;;3.30;;
69203;SDS011;56317;27.658;85.326;2022-08-19T07:44:33;5.30;;;3.17;;
69203;SDS011;56317;27.658;85.326;2022-08-19T07:47:02;7.43;;;3.33;;
69203;SDS011;56317;27.658;85.326;2022-08-19T07:49:30;4.85;;;3.17;;
69203;SDS011;56317;27.658;85.326;2022-08-19T07:51:59;5.10;;;3.00;;
69203;SDS011;56317;27.658;85.326;2022-08-19T07:54:30;7.40;;;4.00;;
69203;SDS011;56317;27.658;85.326;2022-08-19T07:57:02;10.77;;;4.72;;
69203;SDS011;56317;27.658;85.326;2022-08-19T07:59:30;6.72;;;4.32;;
69203;SDS011;56317;27.658;85.326;2022-08-19T08:01:58;8.38;;;4.68;;
69203;SDS011;56317;27.658;85.326;2022-08-19T08:04:26;7.70;;;4.85;;
69203;SDS011;56317;27.658;85.326;2022-08-19T08:07:12;7.22;;;4.95;;
69203;SDS011;56317;27.658;85.326;2022-08-19T08:09:57;8.27;;;5.28;;
69203;SDS011;56317;27.658;85.326;2022-08-19T08:12:27;8.52;;;5.57;;
69203;SDS011;56317;27.658;85.326;2022-08-19T08:15:00;9.02;;;5.22;;
69203;SDS011;56317;27.658;85.326;2022-08-19T08:17:31;9.18;;;5.13;;
69203;SDS011;56317;27.658;85.326;2022-08-19T08:19:59;9.80;;;5.50;;
69203;SDS011;56317;27.658;85.326;2022-08-19T08:22:26;10.38;;;5.47;;
69203;SDS011;56317;27.658;85.326;2022-08-19T08:25:18;12.85;;;5.82;;
69203;SDS011;56317;27.658;85.326;2022-08-19T08:27:48;8.48;;;5.47;;
69203;SDS011;56317;27.658;85.326;2022-08-19T08:30:18;8.65;;;6.05;;
69203;SDS011;56317;27.658;85.326;2022-08-19T08:32:47;8.13;;;6.10;;
69203;SDS011;56317;27.658;85.326;2022-08-19T08:35:16;9.82;;;5.68;;
69203;SDS011;56317;27.658;85.326;2022-08-19T08:40:33;11.25;;;6.70;;
69203;SDS011;56317;27.658;85.326;2022-08-19T08:43:24;9.48;;;5.72;;
69203;SDS011;56317;27.658;85.326;2022-08-19T08:51:22;11.48;;;6.75;;
69203;SDS011;56317;27.658;85.326;2022-08-19T08:54:02;9.20;;;5.75;;
69203;SDS011;56317;27.658;85.326;2022-08-19T08:56:32;9.00;;;5.50;;
69203;SDS011;56317;27.658;85.326;2022-08-19T08:59:02;10.88;;;6.13;;
69203;SDS011;56317;27.658;85.326;2022-08-19T09:01:36;7.82;;;4.95;;
69203;SDS011;56317;27.658;85.326;2022-08-19T09:04:04;7.70;;;4.93;;
69203;SDS011;56317;27.658;85.326;2022-08-19T09:06:40;8.80;;;5.07;;
69203;SDS011;56317;27.658;85.326;2022-08-19T09:09:26;8.75;;;4.80;;
69203;SDS011;56317;27.658;85.326;2022-08-19T09:15:15;7.95;;;4.50;;
69203;SDS011;56317;27.658;85.326;2022-08-19T09:17:47;8.77;;;4.85;;
69203;SDS011;56317;27.658;85.326;2022-08-19T09:20:19;7.20;;;4.47;;
69203;SDS011;56317;27.658;85.326;2022-08-19T09:22:48;6.47;;;4.40;;
69203;SDS011;56317;27.658;85.326;2022-08-19T09:25:17;10.63;;;5.38;;
69203;SDS011;56317;27.658;85.326;2022-08-19T09:27:48;7.50;;;5.22;;
69203;SDS011;56317;27.658;85.326;2022-08-19T09:30:19;7.13;;;4.55;;
69203;SDS011;56317;27.658;85.326;2022-08-19T09:32:49;9.55;;;5.00;;
69203;SDS011;56317;27.658;85.326;2022-08-19T09:35:24;6.75;;;4.32;;
69203;SDS011;56317;27.658;85.326;2022-08-19T09:37:54;9.93;;;5.22;;
69203;SDS011;56317;27.658;85.326;2022-08-19T09:40:22;9.23;;;5.50;;
69203;SDS011;56317;27.658;85.326;2022-08-19T09:42:51;14.68;;;7.25;;
69203;SDS011;56317;27.658;85.326;2022-08-19T09:45:19;10.10;;;6.68;;
69203;SDS011;56317;27.658;85.326;2022-08-19T09:47:51;12.55;;;6.22;;
69203;SDS011;56317;27.658;85.326;2022-08-19T09:50:19;12.05;;;6.88;;
69203;SDS011;56317;27.658;85.326;2022-08-19T09:52:48;9.48;;;5.60;;
69203;SDS011;56317;27.658;85.326;2022-08-19T09:55:17;11.30;;;6.25;;
69203;SDS011;56317;27.658;85.326;2022-08-19T09:57:45;13.00;;;7.03;;
69203;SDS011;56317;27.658;85.326;2022-08-19T10:00:12;10.02;;;6.25;;
69203;SDS011;56317;27.658;85.326;2022-08-19T10:02:39;12.50;;;7.65;;
69203;SDS011;56317;27.658;85.326;2022-08-19T10:05:06;13.75;;;8.00;;
69203;SDS011;56317;27.658;85.326;2022-08-19T10:07:52;12.75;;;8.32;;
69203;SDS011;56317;27.658;85.326;2022-08-19T10:10:20;13.48;;;7.97;;
69203;SDS011;56317;27.658;85.326;2022-08-19T10:12:47;14.02;;;8.93;;
69203;SDS011;56317;27.658;85.326;2022-08-19T10:15:15;13.10;;;8.38;;
69203;SDS011;56317;27.658;85.326;2022-08-19T10:17:46;12.02;;;6.95;;
69203;SDS011;56317;27.658;85.326;2022-08-19T10:20:13;10.70;;;5.88;;
69203;SDS011;56317;27.658;85.326;2022-08-19T10:22:41;8.18;;;4.15;;
69203;SDS011;56317;27.658;85.326;2022-08-19T10:25:09;6.03;;;3.63;;
69203;SDS011;56317;27.658;85.326;2022-08-19T10:27:36;4.30;;;2.30;;
69203;SDS011;56317;27.658;85.326;2022-08-19T10:30:04;4.85;;;2.20;;
69203;SDS011;56317;27.658;85.326;2022-08-19T10:32:31;5.15;;;3.08;;
69203;SDS011;56317;27.658;85.326;2022-08-19T10:34:59;7.30;;;4.53;;
69203;SDS011;56317;27.658;85.326;2022-08-19T10:37:26;8.73;;;4.65;;
69203;SDS011;56317;27.658;85.326;2022-08-19T10:39:56;8.25;;;4.10;;
69203;SDS011;56317;27.658;85.326;2022-08-19T10:42:23;8.23;;;4.35;;
69203;SDS011;56317;27.658;85.326;2022-08-19T10:44:51;8.68;;;4.72;;
69203;SDS011;56317;27.658;85.326;2022-08-19T10:49:48;15.85;;;4.50;;
69203;SDS011;56317;27.658;85.326;2022-08-19T10:52:33;10.70;;;5.95;;
69203;SDS011;56317;27.658;85.326;2022-08-19T10:55:01;16.67;;;5.32;;
69203;SDS011;56317;27.658;85.326;2022-08-19T10:57:50;10.77;;;4.88;;
69203;SDS011;56317;27.658;85.326;2022-08-19T11:00:21;9.60;;;5.05;;
69203;SDS011;56317;27.658;85.326;2022-08-19T11:02:49;9.52;;;4.53;;
69203;SDS011;56317;27.658;85.326;2022-08-19T11:05:17;11.32;;;5.78;;
69203;SDS011;56317;27.658;85.326;2022-08-19T11:07:45;9.82;;;5.05;;
69203;SDS011;56317;27.658;85.326;2022-08-19T11:10:13;11.25;;;6.28;;
69203;SDS011;56317;27.658;85.326;2022-08-19T11:12:41;7.70;;;4.60;;
69203;SDS011;56317;27.658;85.326;2022-08-19T11:15:09;6.43;;;3.50;;
69203;SDS011;56317;27.658;85.326;2022-08-19T11:17:39;10.63;;;3.78;;
69203;SDS011;56317;27.658;85.326;2022-08-19T11:20:10;11.52;;;4.18;;
69203;SDS011;56317;27.658;85.326;2022-08-19T11:22:38;8.52;;;3.78;;
69203;SDS011;56317;27.658;85.326;2022-08-19T11:25:06;12.75;;;4.78;;
69203;SDS011;56317;27.658;85.326;2022-08-19T11:27:37;7.65;;;4.03;;
69203;SDS011;56317;27.658;85.326;2022-08-19T11:30:09;8.73;;;3.88;;
69203;SDS011;56317;27.658;85.326;2022-08-19T11:32:41;6.65;;;3.75;;
69203;SDS011;56317;27.658;85.326;2022-08-19T11:35:08;8.73;;;4.13;;
69203;SDS011;56317;27.658;85.326;2022-08-19T11:37:36;7.30;;;3.90;;
69203;SDS011;56317;27.658;85.326;2022-08-19T11:40:04;7.32;;;4.38;;
69203;SDS011;56317;27.658;85.326;2022-08-19T11:42:32;7.07;;;3.63;;
69203;SDS011;56317;27.658;85.326;2022-08-19T11:45:17;8.90;;;5.07;;
69203;SDS011;56317;27.658;85.326;2022-08-19T11:47:44;8.55;;;4.30;;
69203;SDS011;56317;27.658;85.326;2022-08-19T11:50:13;8.60;;;4.70;;
69203;SDS011;56317;27.658;85.326;2022-08-19T11:52:40;10.02;;;4.60;;
69203;SDS011;56317;27.658;85.326;2022-08-19T11:55:09;7.80;;;4.65;;
69203;SDS011;56317;27.658;85.326;2022-08-19T11:57:37;11.65;;;5.82;;
69203;SDS011;56317;27.658;85.326;2022-08-19T12:00:06;10.95;;;5.82;;
69203;SDS011;56317;27.658;85.326;2022-08-19T12:02:36;14.05;;;5.90;;
69203;SDS011;56317;27.658;85.326;2022-08-19T12:05:03;14.98;;;6.90;;
69203;SDS011;56317;27.658;85.326;2022-08-19T12:07:31;12.98;;;7.40;;
69203;SDS011;56317;27.658;85.326;2022-08-19T12:09:59;11.23;;;7.30;;
69203;SDS011;56317;27.658;85.326;2022-08-19T12:12:27;11.88;;;7.18;;
69203;SDS011;56317;27.658;85.326;2022-08-19T12:14:54;16.92;;;8.05;;
69203;SDS011;56317;27.658;85.326;2022-08-19T12:17:24;13.80;;;6.50;;
69203;SDS011;56317;27.658;85.326;2022-08-19T12:19:55;19.45;;;7.05;;
69203;SDS011;56317;27.658;85.326;2022-08-19T12:22:22;14.07;;;7.00;;
69203;SDS011;56317;27.658;85.326;2022-08-19T12:24:49;12.30;;;7.43;;
69203;SDS011;56317;27.658;85.326;2022-08-19T12:27:18;17.67;;;7.32;;
69203;SDS011;56317;27.658;85.326;2022-08-19T12:29:45;12.38;;;7.22;;
69203;SDS011;56317;27.658;85.326;2022-08-19T12:32:12;12.55;;;7.18;;
69203;SDS011;56317;27.658;85.326;2022-08-19T12:34:40;12.07;;;7.00;;
69203;SDS011;56317;27.658;85.326;2022-08-19T12:37:08;14.00;;;6.53;;
69203;SDS011;56317;27.658;85.326;2022-08-19T12:39:37;12.30;;;6.55;;
69203;SDS011;56317;27.658;85.326;2022-08-19T12:42:07;12.45;;;6.35;;
69203;SDS011;56317;27.658;85.326;2022-08-19T12:44:39;15.43;;;6.53;;
69203;SDS011;56317;27.658;85.326;2022-08-19T12:47:08;13.00;;;6.68;;
69203;SDS011;56317;27.658;85.326;2022-08-19T12:49:37;19.48;;;7.35;;
69203;SDS011;56317;27.658;85.326;2022-08-19T12:52:05;16.70;;;7.43;;
69203;SDS011;56317;27.658;85.326;2022-08-19T12:54:34;13.02;;;6.45;;
69203;SDS011;56317;27.658;85.326;2022-08-19T12:57:05;15.80;;;7.65;;
69203;SDS011;56317;27.658;85.326;2022-08-19T12:59:34;18.13;;;6.68;;
69203;SDS011;56317;27.658;85.326;2022-08-19T13:02:03;11.80;;;5.82;;
69203;SDS011;56317;27.658;85.326;2022-08-19T13:04:32;10.90;;;6.20;;
69203;SDS011;56317;27.658;85.326;2022-08-19T13:07:02;16.13;;;6.65;;
69203;SDS011;56317;27.658;85.326;2022-08-19T13:09:29;13.43;;;7.35;;
69203;SDS011;56317;27.658;85.326;2022-08-19T13:11:56;15.15;;;6.72;;
69203;SDS011;56317;27.658;85.326;2022-08-19T13:14:24;19.02;;;8.02;;
69203;SDS011;56317;27.658;85.326;2022-08-19T13:16:51;15.60;;;6.20;;
69203;SDS011;56317;27.658;85.326;2022-08-19T13:19:18;13.20;;;6.30;;
69203;SDS011;56317;27.658;85.326;2022-08-19T13:21:51;13.23;;;6.93;;
69203;SDS011;56317;27.658;85.326;2022-08-19T13:24:20;19.92;;;8.38;;
69203;SDS011;56317;27.658;85.326;2022-08-19T13:26:48;14.13;;;6.90;;
69203;SDS011;56317;27.658;85.326;2022-08-19T13:29:15;19.23;;;7.28;;
69203;SDS011;56317;27.658;85.326;2022-08-19T13:32:00;21.20;;;7.82;;
69203;SDS011;56317;27.658;85.326;2022-08-19T13:34:45;20.90;;;9.30;;
69203;SDS011;56317;27.658;85.326;2022-08-19T13:37:12;15.88;;;7.43;;
69203;SDS011;56317;27.658;85.326;2022-08-19T13:39:39;19.65;;;7.35;;
69203;SDS011;56317;27.658;85.326;2022-08-19T13:42:06;22.90;;;9.05;;
69203;SDS011;56317;27.658;85.326;2022-08-19T13:44:34;24.15;;;9.90;;
69203;SDS011;56317;27.658;85.326;2022-08-19T13:47:03;23.92;;;11.15;;
69203;SDS011;56317;27.658;85.326;2022-08-19T13:49:32;27.17;;;14.25;;
69203;SDS011;56317;27.658;85.326;2022-08-19T13:52:02;30.23;;;12.55;;
69203;SDS011;56317;27.658;85.326;2022-08-19T13:54:30;30.73;;;12.30;;
69203;SDS011;56317;27.658;85.326;2022-08-19T13:56:57;35.35;;;14.20;;
69203;SDS011;56317;27.658;85.326;2022-08-19T13:59:24;29.50;;;14.32;;
69203;SDS011;56317;27.658;85.326;2022-08-19T14:01:52;25.10;;;12.27;;
69203;SDS011;56317;27.658;85.326;2022-08-19T14:04:23;20.75;;;10.93;;
69203;SDS011;56317;27.658;85.326;2022-08-19T14:06:50;23.15;;;12.40;;
69203;SDS011;56317;27.658;85.326;2022-08-19T14:09:17;23.90;;;11.88;;
69203;SDS011;56317;27.658;85.326;2022-08-19T14:11:44;22.42;;;11.63;;
69203;SDS011;56317;27.658;85.326;2022-08-19T14:14:12;29.90;;;11.73;;
69203;SDS011;56317;27.658;85.326;2022-08-19T14:16:39;19.63;;;11.48;;
69203;SDS011;56317;27.658;85.326;2022-08-19T14:19:06;26.20;;;10.38;;
69203;SDS011;56317;27.658;85.326;2022-08-19T14:21:33;16.20;;;10.23;;
69203;SDS011;56317;27.658;85.326;2022-08-19T14:24:01;20.25;;;11.02;;
69203;SDS011;56317;27.658;85.326;2022-08-19T14:26:28;19.60;;;11.70;;
69203;SDS011;56317;27.658;85.326;2022-08-19T14:28:56;25.23;;;12.80;;
69203;SDS011;56317;27.658;85.326;2022-08-19T14:31:23;23.10;;;12.13;;
69203;SDS011;56317;27.658;85.326;2022-08-19T14:33:51;20.83;;;12.02;;
69203;SDS011;56317;27.658;85.326;2022-08-19T14:36:19;20.83;;;12.48;;
69203;SDS011;56317;27.658;85.326;2022-08-19T14:38:47;22.40;;;13.48;;
69203;SDS011;56317;27.658;85.326;2022-08-19T14:43:49;26.20;;;12.48;;
69203;SDS011;56317;27.658;85.326;2022-08-19T14:46:22;25.95;;;12.32;;
69203;SDS011;56317;27.658;85.326;2022-08-19T14:48:51;24.15;;;12.40;;
69203;SDS011;56317;27.658;85.326;2022-08-19T14:51:19;21.55;;;12.75;;
69203;SDS011;56317;27.658;85.326;2022-08-19T14:53:48;21.65;;;13.07;;
69203;SDS011;56317;27.658;85.326;2022-08-19T14:56:22;20.00;;;12.38;;
69203;SDS011;56317;27.658;85.326;2022-08-19T14:58:52;26.65;;;12.15;;
69203;SDS011;56317;27.658;85.326;2022-08-19T15:01:20;21.33;;;12.30;;
69203;SDS011;56317;27.658;85.326;2022-08-19T15:03:48;19.95;;;11.70;;
69203;SDS011;56317;27.658;85.326;2022-08-19T15:08:47;17.52;;;9.40;;
69203;SDS011;56317;27.658;85.326;2022-08-19T15:11:16;19.95;;;9.85;;
69203;SDS011;56317;27.658;85.326;2022-08-19T15:13:46;20.23;;;9.45;;
69203;SDS011;56317;27.658;85.326;2022-08-19T15:16:18;20.23;;;9.18;;
69203;SDS011;56317;27.658;85.326;2022-08-19T15:21:16;17.92;;;9.88;;
69203;SDS011;56317;27.658;85.326;2022-08-19T15:23:44;16.38;;;9.15;;
69203;SDS011;56317;27.658;85.326;2022-08-19T15:26:14;18.17;;;10.23;;